Alamo, GA (30411)

07:38 EDT le 02 septembre 2014 (GMT -0400)
Springhill Road | Change Station
CLOSE
Current Station
Stations météorologiques personnelles
Location: Alamo, GA
Altitude: 259 ft
Stations météo à proximité

Alt. 259 ft 32.07 °N, 82.73 °W | Updated 14 minutes ago

Pluie
Pluie
73.4 ° F
Paraît 73.4 ° F
N
1.6
Vent Variable Vent de SO

Aujourd'hui
Haut(e) -- | Bas -- ° F
--% Risque de précip.
Hier
Haut(e) -- | Bas -- ° F
Precip. -- pouce
7:06 AM 7:54 PM
Lune montante, 50% visible
Pression 30.08 pouce
Visibilité 10.0 Miles terrestres
Nuages Nuages épars 4800 ft
Nuages épars 5000 ft
Point de rosée 73 ° F
Humidité 99%
Précipitations 0.00 pouce
Profondeur de la couche neigeuse Non disponible.
UV 0 sur 12
Pollen 8.60 sur 12
Qualité de l'air Non disponible.
Flu Activity Non disponible.
METAR KAZE 021115Z AUTO 00000KT 10SM SCT048 SCT050 24/24 A3008 RMK AO2 T02400238

More Conditions Fewer Conditions

Pression 30.08 pouce
Visibilité 10.0 Miles terrestres
Nuages Nuages épars 4800 ft
Nuages épars 5000 ft
Point de rosée 73 ° F
Humidité 99%
Précipitations 0.00 pouce
Profondeur de la couche neigeuse Non disponible.
UV 0 sur 12
Pollen 8.60 sur 12
Qualité de l'air Non disponible.
Flu Activity Non disponible.
METAR KAZE 021115Z AUTO 00000KT 10SM SCT048 SCT050 24/24 A3008 RMK AO2 T02400238

More Conditions Fewer Conditions

10-Day Weather Forecast

Almanac

Astronomie

Sep. 02, 2014 Lever Coucher
Temps réel 07:06 EDT 19:54 EDT
Crépuscule civil 06:42 EDT 20:18 EDT
Crépuscule nautique 06:12 EDT 20:48 EDT
Crépuscule astronomique 05:42 EDT 21:18 EDT
Lune 14:25 EDT 00:19 EDT
Durée de lumière visible 13h 36m
Longueur du jour
12h 47m
Tomorrow will be 1m 53s shorter.
Lune montante, 50% of the Moon is Illuminated
Aujourd'hui
Lune montante
Sep 8
Pleine lune
Sep 15
Dernier quartier
Sep 24
Nouveau
Oct 1
Premier quartier

Extrêmes aujourd'hui

State Highs State Lows

Community

WunderPhotos

Upload Photos

1,749,621 Photos téléchargées !

WunderBlogs® & News

By Dr. Jeff Masters
Director of Meteorology, Weather Underground
By Kari Strenfel
Meteorologist, Weather Underground
By Christopher C. Burt
Weather Historian, Weather Underground
September 2, 2014
September 2, 2014
September 2, 2014

Nearby

Épaisseur de neige

Station Depth Altitude
Pas de nouvelles chutes de neige

Activité sismique

Ville Distance Mag. Time & Date
No recent earthquake activity has been reported nearby.
Minimum magnitude displayed is 2.5.

Températures des eaux côtières

Lieu Température
Aucun rapport de station

Stations météo à proximité